Time;durP1;ratioP1;P1;durP2;ratioP2;P2;SDS_P1;SDS_P2;PMS_P1;PMS_P2;Temp;Humidity;BMP_temperature;BMP_pressure;BME280_temperature;BME280_humidity;BME280_pressure;Samples;Min_cycle;Max_cycle;Signal;HPM_P1;HPM_P2
2021/04/28 00:00:01;;;;;;;4.95;2.60;;;16.80;84.30;16.90;98318.00;;;;337302;28;90414;-92
2021/04/28 00:00:37;;;;;;;3.88;2.42;;;16.80;84.50;16.80;98315.00;;;;338128;28;95858;-91
2021/04/28 00:00:49;;;;;;;3.63;2.33;;;16.80;85.00;16.80;98303.00;;;;339693;28;92136;-92
2021/04/28 00:01:01;;;;;;;4.38;2.55;;;16.70;84.80;16.90;98307.00;;;;341331;28;96975;-91
2021/04/28 00:01:12;;;;;;;4.43;2.45;;;16.80;85.50;16.90;98308.00;;;;339860;28;91257;-91
2021/04/28 00:01:24;;;;;;;5.50;2.47;;;16.80;85.00;16.90;98316.00;;;;339845;28;96913;-91
2021/04/28 00:01:36;;;;;;;6.07;2.42;;;16.80;84.90;16.70;98305.00;;;;338428;28;91172;-92
2021/04/28 00:01:47;;;;;;;5.95;2.58;;;16.80;85.00;16.90;98310.00;;;;338596;28;96769;-92
2021/04/28 00:01:59;;;;;;;5.80;2.53;;;16.80;84.80;16.80;98313.00;;;;338593;28;92056;-92
2021/04/28 00:02:12;;;;;;;5.07;2.60;;;16.80;84.70;16.70;98315.00;;;;336853;28;96724;-92
2021/04/28 00:02:23;;;;;;;4.28;2.75;;;16.80;84.90;16.70;98309.00;;;;338317;28;91431;-91
2021/04/28 00:02:36;;;;;;;4.30;2.30;;;16.80;85.10;16.80;98297.00;;;;338367;28;93808;-92
2021/04/28 00:02:47;;;;;;;4.35;2.03;;;16.80;84.90;16.80;98308.00;;;;337310;28;92048;-92
2021/04/28 00:02:59;;;;;;;5.25;2.55;;;16.80;84.80;16.90;98304.00;;;;336068;28;96853;-91
2021/04/28 00:03:11;;;;;;;5.05;2.78;;;16.80;84.80;17.00;98297.00;;;;336416;28;91347;-91
2021/04/28 00:03:22;;;;;;;4.93;2.55;;;16.80;84.80;16.90;98305.00;;;;335980;28;96009;-92
2021/04/28 00:03:34;;;;;;;3.95;2.15;;;16.80;85.10;17.00;98309.00;;;;337230;28;92060;-91
2021/04/28 00:03:45;;;;;;;4.93;2.45;;;16.80;85.00;17.00;98308.00;;;;340009;28;96067;-91
2021/04/28 00:03:57;;;;;;;5.38;2.55;;;16.80;84.80;17.00;98311.00;;;;337085;28;92030;-92
2021/04/28 00:04:09;;;;;;;4.60;2.45;;;16.80;84.70;16.90;98300.00;;;;340055;28;97150;-91
2021/04/28 00:04:21;;;;;;;4.00;2.53;;;16.80;84.90;16.80;98306.00;;;;337081;28;91296;-91
2021/04/28 00:04:32;;;;;;;4.40;2.58;;;16.80;85.10;16.70;98306.00;;;;339970;28;95830;-93
2021/04/28 00:04:44;;;;;;;4.57;2.42;;;16.80;85.20;16.60;98308.00;;;;337205;28;92162;-91
2021/04/28 00:04:55;;;;;;;4.10;2.28;;;16.80;85.20;16.60;98313.00;;;;340076;28;96088;-91
2021/04/28 00:05:08;;;;;;;3.83;2.35;;;16.80;85.20;16.70;98309.00;;;;337078;28;92054;-91
2021/04/28 00:05:20;;;;;;;4.32;2.42;;;16.80;85.00;16.80;98307.00;;;;336123;28;97031;-92
2021/04/28 00:05:32;;;;;;;4.55;2.50;;;16.80;86.00;16.80;98306.00;;;;337093;28;92353;-91
2021/04/28 00:05:43;;;;;;;4.75;2.53;;;16.80;85.20;16.80;98300.00;;;;337123;28;97061;-91
2021/04/28 00:05:54;;;;;;;5.10;2.60;;;16.80;84.90;16.80;98307.00;;;;338625;28;91902;-92
2021/04/28 00:06:06;;;;;;;4.80;2.85;;;16.80;85.30;16.80;98300.00;;;;337349;28;96749;-91
2021/04/28 00:06:17;;;;;;;5.70;2.85;;;16.80;85.40;16.80;98299.00;;;;339980;28;91512;-92
2021/04/28 00:06:29;;;;;;;6.13;2.88;;;16.70;85.60;16.80;98314.00;;;;338803;28;94767;-91
2021/04/28 00:06:40;;;;;;;5.65;2.63;;;16.70;85.40;16.90;98303.00;;;;338568;28;91198;-91
2021/04/28 00:06:52;;;;;;;5.55;2.78;;;16.70;85.10;16.90;98301.00;;;;336183;28;95768;-92
2021/04/28 00:07:05;;;;;;;5.75;2.80;;;16.80;85.40;16.80;98308.00;;;;338353;28;92111;-91
2021/04/28 00:07:16;;;;;;;5.40;2.85;;;16.80;85.30;16.80;98303.00;;;;337428;28;95027;-90
2021/04/28 00:07:28;;;;;;;5.65;2.72;;;16.70;85.30;16.80;98302.00;;;;335991;28;91876;-91
2021/04/28 00:07:39;;;;;;;5.75;2.80;;;16.80;85.40;16.80;98303.00;;;;337261;28;94332;-91
2021/04/28 00:07:52;;;;;;;5.93;2.80;;;16.70;85.50;16.80;98301.00;;;;337282;28;91197;-91
2021/04/28 00:08:04;;;;;;;6.68;2.78;;;16.70;85.50;16.90;98303.00;;;;335988;28;96875;-91
2021/04/28 00:08:15;;;;;;;6.43;2.50;;;16.70;85.10;16.90;98307.00;;;;338467;28;90547;-91
2021/04/28 00:08:27;;;;;;;6.32;2.35;;;16.80;86.00;16.90;98307.00;;;;337363;28;96007;-91
2021/04/28 00:08:38;;;;;;;5.18;2.42;;;16.80;85.30;16.80;98303.00;;;;338552;28;92124;-92
2021/04/28 00:08:49;;;;;;;6.40;2.70;;;16.80;85.40;16.90;98312.00;;;;337390;28;96361;-92
2021/04/28 00:09:04;;;;;;;5.72;2.90;;;16.80;85.30;16.80;98303.00;;;;339769;28;92005;-91
2021/04/28 00:09:15;;;;;;;5.97;2.97;;;16.80;85.50;16.80;98307.00;;;;338618;28;95743;-91
2021/04/28 00:09:27;;;;;;;5.07;2.83;;;16.80;85.50;17.00;98305.00;;;;339996;28;91255;-91
2021/04/28 00:09:38;;;;;;;4.75;2.78;;;16.80;85.40;17.00;98302.00;;;;340056;28;95321;-92
2021/04/28 00:09:50;;;;;;;4.63;2.63;;;16.80;85.30;16.90;98305.00;;;;339967;28;91704;-92
2021/04/28 00:10:04;;;;;;;4.78;2.60;;;16.80;85.50;16.80;98301.00;;;;338751;28;95474;-92
2021/04/28 00:10:19;;;;;;;6.13;2.60;;;16.80;85.30;16.90;98308.00;;;;338601;28;91450;-92
2021/04/28 00:10:33;;;;;;;6.10;2.50;;;16.80;85.20;17.00;98306.00;;;;338738;28;96444;-91
2021/04/28 00:10:44;;;;;;;5.00;2.67;;;16.80;85.20;16.90;98303.00;;;;339989;28;92079;-91
2021/04/28 00:10:56;;;;;;;4.82;2.88;;;16.80;85.30;16.90;98297.00;;;;337187;28;95349;-91
2021/04/28 00:11:07;;;;;;;4.30;2.90;;;16.80;85.20;17.00;98303.00;;;;339353;28;92072;-91
2021/04/28 00:11:18;;;;;;;5.18;2.97;;;16.80;85.00;17.10;98303.00;;;;342096;28;96864;-92
2021/04/28 00:11:30;;;;;;;5.13;2.88;;;16.90;85.80;17.10;98299.00;;;;338570;28;91494;-91
2021/04/28 00:11:41;;;;;;;5.00;2.78;;;16.80;85.00;17.10;98300.00;;;;335649;28;95250;-91
2021/04/28 00:11:53;;;;;;;5.52;2.86;;;16.90;84.90;17.00;98304.00;;;;339801;28;92215;-91
2021/04/28 00:12:05;;;;;;;6.57;3.00;;;16.90;84.90;16.90;98293.00;;;;341454;28;95697;-92
2021/04/28 00:12:16;;;;;;;6.43;2.92;;;16.90;84.80;16.80;98301.00;;;;340026;28;91359;-92
2021/04/28 00:12:28;;;;;;;4.90;2.50;;;16.90;85.00;16.80;98303.00;;;;338679;28;95977;-91
2021/04/28 00:12:39;;;;;;;4.75;2.58;;;16.90;85.00;16.90;98300.00;;;;337486;28;91272;-91
2021/04/28 00:12:50;;;;;;;6.53;2.78;;;16.90;85.30;16.80;98293.00;;;;341708;28;96682;-91
2021/04/28 00:13:03;;;;;;;5.97;2.72;;;16.90;85.40;16.80;98302.00;;;;340183;28;91147;-91
2021/04/28 00:13:15;;;;;;;6.88;2.60;;;16.90;85.00;16.80;98304.00;;;;336224;28;95755;-91
2021/04/28 00:13:27;;;;;;;6.32;2.72;;;16.90;85.00;16.70;98302.00;;;;338880;28;91924;-92
2021/04/28 00:13:38;;;;;;;6.38;2.70;;;16.90;84.90;16.80;98299.00;;;;338864;28;93765;-91
2021/04/28 00:13:50;;;;;;;4.90;2.58;;;16.90;85.10;16.80;98303.00;;;;341422;28;91174;-91
2021/04/28 00:14:02;;;;;;;4.90;2.47;;;16.90;85.10;16.80;98291.00;;;;338925;28;96652;-91
2021/04/28 00:14:14;;;;;;;3.70;2.42;;;16.90;85.10;16.80;98298.00;;;;337513;28;90459;-91
2021/04/28 00:14:25;;;;;;;4.35;2.67;;;16.90;85.10;16.70;98287.00;;;;338576;28;94728;-91
2021/04/28 00:14:37;;;;;;;3.65;2.60;;;16.90;85.00;16.60;98293.00;;;;337561;28;91160;-91
2021/04/28 00:14:48;;;;;;;4.15;2.72;;;16.90;85.20;16.70;98298.00;;;;341704;28;96394;-92
2021/04/28 00:15:00;;;;;;;4.82;2.88;;;16.80;85.10;16.90;98302.00;;;;338858;28;92053;-91
2021/04/28 00:15:16;;;;;;;5.03;2.90;;;16.80;84.80;16.90;98294.00;;;;340409;28;94828;-92
2021/04/28 00:15:34;;;;;;;4.57;2.50;;;16.80;85.00;16.90;98299.00;;;;338848;28;91988;-91
2021/04/28 00:15:48;;;;;;;4.97;2.70;;;16.80;84.90;17.10;98298.00;;;;338976;28;97520;-91
2021/04/28 00:16:01;;;;;;;4.20;2.65;;;16.80;85.50;16.90;98305.00;;;;337527;28;92001;-91
2021/04/28 00:16:12;;;;;;;3.88;2.67;;;16.90;85.80;17.00;98298.00;;;;338967;28;96812;-91
2021/04/28 00:16:24;;;;;;;4.18;2.95;;;16.80;85.10;16.90;98300.00;;;;338894;28;90493;-91
2021/04/28 00:16:36;;;;;;;5.00;2.83;;;16.90;85.10;16.90;98295.00;;;;339018;28;95024;-92
2021/04/28 00:16:48;;;;;;;4.82;2.42;;;16.90;85.10;16.70;98292.00;;;;337464;28;91123;-91
2021/04/28 00:16:59;;;;;;;6.00;2.45;;;16.90;85.50;16.70;98292.00;;;;339033;28;95493;-91
2021/04/28 00:17:13;;;;;;;7.50;3.22;;;16.90;85.60;16.60;98297.00;;;;334909;28;92173;-90
2021/04/28 00:17:25;;;;;;;7.40;3.08;;;16.80;85.30;16.60;98292.00;;;;336479;28;95503;-91
2021/04/28 00:17:36;;;;;;;8.93;2.72;;;16.80;85.40;16.50;98295.00;;;;337486;28;91218;-91
2021/04/28 00:17:48;;;;;;;4.93;2.30;;;16.80;85.50;16.60;98296.00;;;;337613;28;96141;-91
2021/04/28 00:18:02;;;;;;;3.75;2.33;;;16.80;85.30;16.70;98295.00;;;;337780;28;91085;-91
2021/04/28 00:18:15;;;;;;;3.63;2.13;;;16.80;85.50;16.50;98295.00;;;;339334;28;95603;-92
2021/04/28 00:18:26;;;;;;;4.45;2.20;;;16.80;85.70;16.50;98302.00;;;;338994;28;90433;-92
2021/04/28 00:18:38;;;;;;;5.35;2.72;;;16.80;85.70;16.60;98297.00;;;;340516;28;94714;-92
2021/04/28 00:18:50;;;;;;;6.15;3.33;;;16.80;85.90;16.60;98291.00;;;;338809;28;91138;-92
2021/04/28 00:19:02;;;;;;;5.03;3.10;;;16.70;85.70;16.50;98293.00;;;;340352;28;95394;-92
2021/04/28 00:19:13;;;;;;;8.02;3.00;;;16.70;85.90;16.50;98298.00;;;;340202;28;91532;-91
2021/04/28 00:19:26;;;;;;;7.82;2.72;;;16.70;85.70;16.50;98305.00;;;;340234;28;95534;-92
2021/04/28 00:19:37;;;;;;;5.00;2.50;;;16.70;85.70;16.50;98300.00;;;;339975;28;91136;-91
2021/04/28 00:19:49;;;;;;;4.28;2.58;;;16.70;85.90;16.40;98304.00;;;;341410;28;96815;-91
2021/04/28 00:20:00;;;;;;;3.80;2.50;;;16.70;86.10;16.30;98303.00;;;;337432;28;92393;-91
2021/04/28 00:20:13;;;;;;;5.07;2.72;;;16.70;86.20;16.40;98294.00;;;;338402;28;96248;-91
2021/04/28 00:20:24;;;;;;;5.68;2.83;;;16.60;86.30;16.60;98295.00;;;;338600;28;90731;-92
2021/04/28 00:20:40;;;;;;;5.50;2.80;;;16.60;86.00;16.70;98305.00;;;;338723;28;95372;-91
2021/04/28 00:20:52;;;;;;;5.65;2.88;;;16.60;86.00;16.60;98299.00;;;;337331;28;92096;-92
2021/04/28 00:21:04;;;;;;;5.80;2.83;;;16.60;86.20;16.60;98298.00;;;;336211;28;95430;-91
2021/04/28 00:21:16;;;;;;;5.55;2.95;;;16.60;86.30;16.60;98295.00;;;;338297;28;91254;-91
2021/04/28 00:21:28;;;;;;;5.30;3.42;;;16.60;86.40;16.40;98296.00;;;;337446;28;97001;-92
2021/04/28 00:21:39;;;;;;;6.00;3.55;;;16.60;86.50;16.40;98297.00;;;;338671;28;91172;-91
2021/04/28 00:21:50;;;;;;;5.78;3.30;;;16.60;86.60;16.40;98291.00;;;;338783;28;94996;-91
2021/04/28 00:22:02;;;;;;;4.78;2.47;;;16.60;86.50;16.40;98292.00;;;;340160;28;92022;-91
2021/04/28 00:22:13;;;;;;;4.15;2.47;;;16.60;86.60;16.40;98301.00;;;;338747;28;96556;-91
2021/04/28 00:22:25;;;;;;;4.18;2.58;;;16.50;86.70;16.50;98299.00;;;;339946;28;91350;-91
2021/04/28 00:22:36;;;;;;;6.45;3.25;;;16.50;86.60;16.50;98299.00;;;;337424;28;96001;-91
2021/04/28 00:22:48;;;;;;;6.70;3.13;;;16.50;86.60;16.50;98300.00;;;;339876;28;92052;-91
2021/04/28 00:22:59;;;;;;;5.65;3.03;;;16.60;86.70;16.50;98298.00;;;;337400;28;95765;-90
2021/04/28 00:23:24;;;;;;;4.30;2.85;;;16.50;87.00;16.60;98305.00;;;;340655;28;92186;-92
2021/04/28 00:23:36;;;;;;;4.38;2.85;;;16.50;87.10;16.50;98305.00;;;;337390;28;95947;-91
2021/04/28 00:23:47;;;;;;;5.28;2.72;;;16.50;87.00;16.50;98292.00;;;;338470;28;92133;-90
2021/04/28 00:23:58;;;;;;;6.03;2.58;;;16.50;87.40;16.60;98297.00;;;;338903;28;94161;-91
2021/04/28 00:24:12;;;;;;;6.47;2.65;;;16.50;86.80;16.60;98303.00;;;;339285;28;91950;-91
2021/04/28 00:24:23;;;;;;;6.32;3.30;;;16.50;87.00;16.70;98305.00;;;;337137;28;96934;-91
2021/04/28 00:24:35;;;;;;;5.07;2.80;;;16.50;86.70;16.70;98295.00;;;;337380;28;90428;-91
2021/04/28 00:24:47;;;;;;;4.72;2.60;;;16.50;86.90;16.70;98304.00;;;;336065;28;94531;-91
2021/04/28 00:24:58;;;;;;;5.30;2.72;;;16.60;86.80;16.70;98302.00;;;;337387;28;91143;-92
2021/04/28 00:25:13;;;;;;;7.00;3.03;;;16.60;86.70;16.70;98304.00;;;;338631;28;95559;-91
2021/04/28 00:25:25;;;;;;;5.90;2.85;;;16.60;87.20;16.70;98307.00;;;;337363;28;92019;-91
2021/04/28 00:25:37;;;;;;;5.30;2.85;;;16.60;87.10;16.50;98301.00;;;;336198;28;96578;-91
2021/04/28 00:25:49;;;;;;;5.68;2.90;;;16.60;87.30;16.60;98301.00;;;;337230;28;92157;-92
2021/04/28 00:26:01;;;;;;;7.82;3.20;;;16.60;87.00;16.60;98301.00;;;;338858;28;95355;-92
2021/04/28 00:26:15;;;;;;;6.88;3.05;;;16.60;87.20;16.60;98299.00;;;;339499;28;91307;-90
2021/04/28 00:26:27;;;;;;;6.20;3.05;;;16.60;87.10;16.70;98298.00;;;;337386;28;95752;-91
2021/04/28 00:26:38;;;;;;;4.93;2.80;;;16.60;86.90;16.70;98298.00;;;;337073;28;91474;-91
2021/04/28 00:26:50;;;;;;;4.28;2.53;;;16.60;86.90;16.80;98306.00;;;;336211;28;95168;-91
2021/04/28 00:27:02;;;;;;;3.85;2.45;;;16.60;87.00;16.70;98306.00;;;;335997;28;92028;-91
2021/04/28 00:27:14;;;;;;;5.18;2.72;;;16.60;86.90;16.50;98302.00;;;;338402;28;96296;-91
2021/04/28 00:27:25;;;;;;;6.07;2.95;;;16.60;87.10;16.60;98310.00;;;;338778;28;91104;-92
2021/04/28 00:27:45;;;;;;;4.25;2.80;;;16.60;87.00;16.50;98303.00;;;;338789;28;95696;-91
2021/04/28 00:27:57;;;;;;;3.97;2.80;;;16.60;86.90;16.60;98296.00;;;;337399;28;91957;-91
2021/04/28 00:28:08;;;;;;;5.50;2.92;;;16.60;86.80;16.60;98303.00;;;;338608;28;94925;-91
2021/04/28 00:28:20;;;;;;;7.13;3.15;;;16.60;86.50;16.60;98295.00;;;;337257;28;91167;-91
2021/04/28 00:28:32;;;;;;;7.82;3.08;;;16.60;86.80;16.70;98298.00;;;;338661;28;96013;-92
2021/04/28 00:28:44;;;;;;;6.35;2.90;;;16.60;86.60;16.80;98294.00;;;;338618;28;91345;-91
2021/04/28 00:28:55;;;;;;;4.68;2.75;;;16.60;86.40;16.70;98302.00;;;;338833;28;95831;-91
2021/04/28 00:29:06;;;;;;;5.43;2.83;;;16.60;86.30;16.60;98303.00;;;;335795;28;92067;-92
2021/04/28 00:29:18;;;;;;;4.80;2.80;;;16.60;87.10;16.50;98299.00;;;;339926;28;96340;-91
2021/04/28 00:29:29;;;;;;;5.05;2.67;;;16.60;86.90;16.40;98298.00;;;;338708;28;91945;-91
2021/04/28 00:29:41;;;;;;;7.00;3.00;;;16.60;86.90;16.40;98300.00;;;;338379;28;92603;-90
2021/04/28 00:29:53;;;;;;;9.02;3.40;;;16.60;86.90;16.40;98297.00;;;;337394;28;91977;-91
2021/04/28 00:30:07;;;;;;;9.13;3.47;;;16.60;86.80;16.50;98298.00;;;;338805;28;95348;-90
2021/04/28 00:30:19;;;;;;;5.72;2.90;;;16.60;86.70;16.60;98293.00;;;;338681;28;91183;-91
2021/04/28 00:30:30;;;;;;;5.35;2.97;;;16.60;86.70;16.60;98307.00;;;;340030;28;96886;-91
2021/04/28 00:30:42;;;;;;;3.90;2.72;;;16.70;86.60;16.70;98302.00;;;;336003;28;91335;-91
2021/04/28 00:30:53;;;;;;;4.55;2.70;;;16.60;86.60;16.60;98295.00;;;;336310;28;93507;-91
2021/04/28 00:31:05;;;;;;;4.82;2.42;;;16.60;87.00;16.60;98299.00;;;;335805;28;91271;-92
2021/04/28 00:31:17;;;;;;;6.22;2.38;;;16.60;86.90;16.50;98297.00;;;;337393;28;97156;-91
2021/04/28 00:31:28;;;;;;;5.35;2.53;;;16.60;86.80;16.60;98300.00;;;;338450;28;92123;-91
2021/04/28 00:31:40;;;;;;;4.63;2.78;;;16.60;87.00;16.60;98293.00;;;;338796;28;96883;-92
2021/04/28 00:31:52;;;;;;;4.78;3.08;;;16.60;87.20;16.50;98296.00;;;;339959;28;92159;-91
2021/04/28 00:32:04;;;;;;;5.43;3.10;;;16.60;87.10;16.50;98301.00;;;;336091;28;94155;-91
2021/04/28 00:32:15;;;;;;;5.00;3.03;;;16.60;86.80;16.40;98299.00;;;;337145;28;92111;-91
2021/04/28 00:32:28;;;;;;;4.70;3.05;;;16.60;87.10;16.40;98288.00;;;;338664;28;94309;-92
2021/04/28 00:32:40;;;;;;;5.22;3.05;;;16.60;87.20;16.50;98300.00;;;;339127;28;91391;-90
2021/04/28 00:32:53;;;;;;;6.15;3.08;;;16.60;87.10;16.60;98294.00;;;;337510;28;96150;-93
2021/04/28 00:33:05;;;;;;;5.95;3.08;;;16.60;87.00;16.50;98301.00;;;;338571;28;92135;-91
2021/04/28 00:33:16;;;;;;;5.97;2.85;;;16.60;86.90;16.40;98298.00;;;;337499;28;96665;-91
2021/04/28 00:33:28;;;;;;;5.75;2.97;;;16.60;87.20;16.40;98299.00;;;;338509;28;91989;-92
2021/04/28 00:33:40;;;;;;;6.47;2.90;;;16.50;87.30;16.30;98301.00;;;;337501;28;97175;-91
2021/04/28 00:33:52;;;;;;;6.60;3.08;;;16.50;87.30;16.40;98291.00;;;;339902;28;92112;-91
2021/04/28 00:34:03;;;;;;;6.60;2.92;;;16.50;87.80;16.30;98293.00;;;;338836;28;96827;-91
2021/04/28 00:34:15;;;;;;;6.68;2.83;;;16.50;87.20;16.40;98285.00;;;;337269;28;92421;-91
2021/04/28 00:34:26;;;;;;;7.13;2.80;;;16.50;87.10;16.50;98296.00;;;;338620;28;96400;-92
2021/04/28 00:34:38;;;;;;;6.85;2.85;;;16.60;87.10;16.50;98292.00;;;;338723;28;91285;-92
2021/04/28 00:34:49;;;;;;;5.32;2.65;;;16.60;86.80;16.60;98298.00;;;;340253;28;94043;-92
2021/04/28 00:35:02;;;;;;;4.03;2.50;;;16.60;86.80;16.60;98297.00;;;;341126;28;92017;-91
2021/04/28 00:35:14;;;;;;;5.18;2.58;;;16.60;86.90;16.70;98294.00;;;;336975;28;96845;-91
2021/04/28 00:35:26;;;;;;;6.78;2.83;;;16.60;87.10;16.70;98298.00;;;;337418;28;91282;-91
2021/04/28 00:35:37;;;;;;;7.28;3.05;;;16.60;87.10;16.70;98296.00;;;;339053;28;96488;-91
2021/04/28 00:35:49;;;;;;;6.72;3.08;;;16.60;87.10;16.80;98293.00;;;;337290;28;91999;-90
2021/04/28 00:36:06;;;;;;;6.30;3.00;;;16.60;86.80;16.70;98298.00;;;;340142;28;97335;-91
2021/04/28 00:36:17;;;;;;;5.22;2.92;;;16.60;87.10;16.70;98294.00;;;;337360;28;91260;-92
2021/04/28 00:36:28;;;;;;;5.28;2.80;;;16.60;87.30;16.70;98295.00;;;;339970;28;95567;-92
2021/04/28 00:36:40;;;;;;;6.05;3.15;;;16.60;87.00;16.60;98296.00;;;;338598;28;91301;-91
2021/04/28 00:36:51;;;;;;;5.75;3.00;;;16.60;87.20;16.40;98294.00;;;;340152;28;95529;-92
2021/04/28 00:37:03;;;;;;;5.57;2.80;;;16.60;87.30;16.60;98290.00;;;;338425;28;91491;-91
2021/04/28 00:37:18;;;;;;;5.75;2.70;;;16.60;87.30;16.60;98293.00;;;;340100;28;96799;-91
2021/04/28 00:37:30;;;;;;;6.57;3.03;;;16.60;87.40;16.50;98297.00;;;;338718;28;91857;-91
2021/04/28 00:37:41;;;;;;;7.15;3.13;;;16.60;87.30;16.40;98293.00;;;;339950;28;96761;-91
2021/04/28 00:37:53;;;;;;;5.97;2.85;;;16.50;87.30;16.50;98294.00;;;;341344;28;91255;-92
2021/04/28 00:38:04;;;;;;;4.40;2.22;;;16.60;87.30;16.60;98294.00;;;;341211;28;96797;-91
2021/04/28 00:38:16;;;;;;;4.68;2.22;;;16.60;87.30;16.60;98297.00;;;;339341;28;92082;-91
2021/04/28 00:38:27;;;;;;;4.53;2.38;;;16.60;87.20;16.50;98293.00;;;;341310;28;96496;-91
2021/04/28 00:38:38;;;;;;;4.78;2.70;;;16.60;87.30;16.50;98297.00;;;;338369;28;91381;-91
2021/04/28 00:38:50;;;;;;;4.10;2.72;;;16.50;87.20;16.40;98293.00;;;;339974;28;95870;-90
2021/04/28 00:39:03;;;;;;;4.63;2.97;;;16.50;87.80;16.50;98302.00;;;;338642;28;91978;-91
2021/04/28 00:39:14;;;;;;;4.95;2.85;;;16.50;87.20;16.50;98302.00;;;;336176;28;95867;-92
2021/04/28 00:39:26;;;;;;;5.35;2.70;;;16.50;87.30;16.60;98299.00;;;;333658;29;91032;-91
2021/04/28 00:39:37;;;;;;;5.68;2.83;;;16.60;87.40;16.60;98298.00;;;;337523;28;95478;-91
2021/04/28 00:39:49;;;;;;;5.38;2.92;;;16.60;87.30;16.70;98290.00;;;;335878;28;92130;-91
2021/04/28 00:40:00;;;;;;;4.10;2.65;;;16.60;87.20;16.70;98297.00;;;;337632;28;95102;-91
2021/04/28 00:40:18;;;;;;;5.00;2.88;;;16.60;87.10;16.50;98299.00;;;;338687;28;92104;-92
2021/04/28 00:40:35;;;;;;;6.85;3.28;;;16.60;87.40;16.40;98292.00;;;;338716;28;95542;-92
2021/04/28 00:40:46;;;;;;;6.55;3.03;;;16.50;87.50;16.40;98295.00;;;;337369;28;91334;-89
2021/04/28 00:40:57;;;;;;;5.60;3.08;;;16.50;87.40;16.40;98289.00;;;;338883;28;93102;-91
2021/04/28 00:41:09;;;;;;;6.25;3.60;;;16.50;87.20;16.40;98298.00;;;;337686;28;91409;-91
2021/04/28 00:41:21;;;;;;;6.30;3.42;;;16.50;87.30;16.50;98300.00;;;;337404;28;94152;-91
2021/04/28 00:41:32;;;;;;;5.30;3.13;;;16.50;87.50;16.50;98300.00;;;;337084;28;92362;-91
2021/04/28 00:41:44;;;;;;;5.03;2.75;;;16.50;87.50;16.30;98295.00;;;;336006;28;95612;-91
2021/04/28 00:41:56;;;;;;;3.78;2.63;;;16.50;87.50;16.20;98291.00;;;;338707;28;91210;-91
2021/04/28 00:42:08;;;;;;;4.32;2.72;;;16.40;87.70;16.30;98286.00;;;;336540;28;92994;-91
2021/04/28 00:42:19;;;;;;;5.18;2.90;;;16.50;87.70;16.40;98292.00;;;;338585;28;92036;-91
2021/04/28 00:42:31;;;;;;;7.35;2.88;;;16.50;87.40;16.50;98291.00;;;;337481;28;93831;-91
2021/04/28 00:42:44;;;;;;;7.68;2.78;;;16.50;87.30;16.60;98289.00;;;;340072;28;90387;-91
2021/04/28 00:42:56;;;;;;;6.65;3.10;;;16.50;87.30;16.70;98293.00;;;;336078;28;95413;-91
2021/04/28 00:43:08;;;;;;;5.50;3.13;;;16.50;87.30;16.60;98287.00;;;;338551;28;91993;-92
2021/04/28 00:43:19;;;;;;;5.68;2.85;;;16.50;87.20;16.50;98306.00;;;;338772;28;97106;-91
2021/04/28 00:43:31;;;;;;;5.35;2.70;;;16.50;87.10;16.40;98296.00;;;;338633;28;92060;-92
2021/04/28 00:43:42;;;;;;;4.45;2.67;;;16.50;87.40;16.30;98295.00;;;;339962;28;96658;-92
2021/04/28 00:43:54;;;;;;;4.38;2.67;;;16.50;87.50;16.50;98294.00;;;;336003;28;92413;-91
2021/04/28 00:44:09;;;;;;;4.88;2.70;;;16.50;87.40;16.60;98294.00;;;;338228;28;93813;-91
2021/04/28 00:44:20;;;;;;;4.20;2.60;;;16.50;87.40;16.60;98291.00;;;;337190;28;92255;-91
2021/04/28 00:44:48;;;;;;;4.75;2.60;;;16.60;87.50;16.60;98287.00;;;;339911;28;95865;-91
2021/04/28 00:45:00;;;;;;;5.32;2.90;;;16.60;87.40;16.50;98293.00;;;;334737;29;91266;-91
2021/04/28 00:45:13;;;;;;;6.40;3.00;;;16.60;87.40;16.40;98293.00;;;;338662;28;95743;-91
2021/04/28 00:45:25;;;;;;;6.47;3.00;;;16.60;87.50;16.40;98286.00;;;;337344;28;92041;-92
2021/04/28 00:45:37;;;;;;;7.20;3.05;;;16.60;87.40;16.50;98295.00;;;;338830;28;94533;-91
2021/04/28 00:45:49;;;;;;;7.70;3.33;;;16.60;87.50;16.40;98293.00;;;;337313;28;92055;-91
2021/04/28 00:46:01;;;;;;;6.03;3.05;;;16.60;87.50;16.50;98294.00;;;;338934;28;93139;-91
2021/04/28 00:46:12;;;;;;;4.30;2.90;;;16.50;88.00;16.60;98288.00;;;;337134;28;92208;-91
2021/04/28 00:46:24;;;;;;;4.63;2.88;;;16.50;87.30;16.60;98293.00;;;;334733;29;96572;-91
2021/04/28 00:46:36;;;;;;;4.55;2.78;;;16.50;87.50;16.40;98283.00;;;;334548;29;91196;-92
2021/04/28 00:46:47;;;;;;;4.30;2.80;;;16.50;87.60;16.60;98294.00;;;;336192;28;96944;-91
2021/04/28 00:46:59;;;;;;;4.00;2.63;;;16.50;87.70;16.50;98294.00;;;;340056;28;90456;-90
2021/04/28 00:47:11;;;;;;;4.05;2.63;;;16.50;87.80;16.60;98291.00;;;;338370;28;95229;-91
2021/04/28 00:47:23;;;;;;;4.57;2.83;;;16.50;87.40;16.50;98294.00;;;;339097;28;92222;-92
2021/04/28 00:47:34;;;;;;;4.80;2.60;;;16.60;87.60;16.60;98294.00;;;;340307;28;94182;-91
2021/04/28 00:47:46;;;;;;;4.70;2.88;;;16.50;87.40;16.60;98293.00;;;;339955;28;92070;-91
2021/04/28 00:48:00;;;;;;;4.53;2.80;;;16.60;87.50;16.40;98288.00;;;;337230;28;96936;-91
2021/04/28 00:48:12;;;;;;;4.47;2.95;;;16.60;87.90;16.30;98298.00;;;;334788;29;92085;-91
2021/04/28 00:48:23;;;;;;;6.22;2.97;;;16.50;87.60;16.50;98294.00;;;;334816;28;96894;-91
2021/04/28 00:48:35;;;;;;;6.10;2.70;;;16.50;87.50;16.50;98295.00;;;;337414;28;91977;-91
2021/04/28 00:48:46;;;;;;;5.57;2.83;;;16.50;87.50;16.40;98296.00;;;;338856;28;96389;-91
2021/04/28 00:48:57;;;;;;;6.38;3.10;;;16.60;87.40;16.50;98290.00;;;;338754;28;90505;-91
2021/04/28 00:49:09;;;;;;;6.07;3.03;;;16.50;87.40;16.60;98296.00;;;;340213;28;94024;-92
2021/04/28 00:49:21;;;;;;;4.68;3.20;;;16.60;87.30;16.60;98295.00;;;;338765;28;92580;-91
2021/04/28 00:49:32;;;;;;;6.95;3.50;;;16.60;87.30;16.60;98291.00;;;;338935;28;96322;-91
2021/04/28 00:49:44;;;;;;;6.65;3.15;;;16.60;87.40;16.60;98290.00;;;;339911;28;92770;-91
2021/04/28 00:49:55;;;;;;;5.93;2.80;;;16.60;87.30;16.60;98288.00;;;;338900;28;94973;-91
2021/04/28 00:50:09;;;;;;;4.72;2.35;;;16.60;87.30;16.70;98286.00;;;;335766;28;91954;-92
2021/04/28 00:50:29;;;;;;;5.72;2.83;;;16.60;87.40;16.50;98287.00;;;;337199;28;94482;-91
2021/04/28 00:50:43;;;;;;;6.68;2.83;;;16.60;87.50;16.50;98289.00;;;;339980;28;91954;-91
2021/04/28 00:50:55;;;;;;;6.13;2.72;;;16.60;87.70;16.50;98290.00;;;;337559;28;94426;-91
2021/04/28 00:51:06;;;;;;;6.25;2.53;;;16.60;87.50;16.60;98292.00;;;;341221;28;91311;-92
2021/04/28 00:51:18;;;;;;;6.90;2.58;;;16.60;87.40;16.60;98293.00;;;;340167;28;93894;-91
2021/04/28 00:51:30;;;;;;;7.10;2.60;;;16.60;87.50;16.60;98291.00;;;;338725;28;91139;-92
2021/04/28 00:51:41;;;;;;;6.85;2.80;;;16.60;87.30;16.50;98289.00;;;;338840;28;95757;-91
2021/04/28 00:51:53;;;;;;;6.53;3.08;;;16.60;87.60;16.50;98291.00;;;;338702;28;92068;-91
2021/04/28 00:52:05;;;;;;;7.97;3.33;;;16.60;87.70;16.40;98290.00;;;;337598;28;94365;-91
2021/04/28 00:52:17;;;;;;;6.97;3.17;;;16.50;87.60;16.50;98286.00;;;;336020;28;91985;-91
2021/04/28 00:52:28;;;;;;;4.28;2.50;;;16.60;87.40;16.50;98296.00;;;;340085;28;96944;-91
2021/04/28 00:52:40;;;;;;;4.72;2.75;;;16.50;87.50;16.40;98293.00;;;;337165;28;91975;-91
2021/04/28 00:52:51;;;;;;;6.25;3.00;;;16.50;87.50;16.30;98286.00;;;;340052;28;95765;-92
2021/04/28 00:53:06;;;;;;;6.65;3.00;;;16.50;87.70;16.20;98291.00;;;;336079;28;91368;-91
2021/04/28 00:53:20;;;;;;;6.10;2.90;;;16.40;87.80;16.30;98282.00;;;;339998;28;93548;-91
2021/04/28 00:53:32;;;;;;;6.65;2.80;;;16.40;87.80;16.30;98289.00;;;;337386;28;91115;-90
2021/04/28 00:53:43;;;;;;;8.43;2.88;;;16.40;87.80;16.30;98292.00;;;;338522;28;95437;-91
2021/04/28 00:53:55;;;;;;;8.23;3.30;;;16.40;88.50;16.30;98281.00;;;;336026;28;92069;-91
2021/04/28 00:54:06;;;;;;;7.80;3.30;;;16.40;87.70;16.30;98289.00;;;;338581;28;95654;-91
2021/04/28 00:54:18;;;;;;;5.75;2.80;;;16.40;87.80;16.50;98289.00;;;;337284;28;91899;-91
2021/04/28 00:54:29;;;;;;;4.30;2.33;;;16.40;87.70;16.50;98294.00;;;;338834;28;95910;-92
2021/04/28 00:54:41;;;;;;;4.22;2.47;;;16.50;87.70;16.40;98292.00;;;;341477;28;92328;-91
2021/04/28 00:54:52;;;;;;;5.30;2.85;;;16.50;88.00;16.40;98286.00;;;;338909;28;96352;-91